createdAt,value
2018-12-12T06:28:47.309Z,21.80
2018-12-12T06:29:47.281Z,18.20
2018-12-12T06:30:47.270Z,21.80
2018-12-12T06:31:47.279Z,19.20
2018-12-12T06:32:47.249Z,21.00
2018-12-12T06:33:47.238Z,23.30
2018-12-12T06:34:47.233Z,22.80
2018-12-12T06:35:47.227Z,23.80
2018-12-12T06:36:47.264Z,21.00
2018-12-12T06:37:47.194Z,20.00
2018-12-12T06:38:47.198Z,20.90
2018-12-12T06:39:47.189Z,19.20
2018-12-12T06:40:47.165Z,19.20
2018-12-12T06:41:47.173Z,19.50
2018-12-12T06:42:47.145Z,19.30
2018-12-12T06:43:47.132Z,18.70
2018-12-12T06:44:47.137Z,20.60
2018-12-12T06:45:47.116Z,19.80
2018-12-12T06:46:47.128Z,19.50
2018-12-12T06:47:47.092Z,20.30
2018-12-12T06:48:47.080Z,21.60
2018-12-12T06:49:47.082Z,19.50
2018-12-12T06:50:47.065Z,21.80
2018-12-12T06:51:47.066Z,17.90
2018-12-12T06:52:47.039Z,17.30
2018-12-12T06:53:47.031Z,17.30
2018-12-12T06:54:47.016Z,17.80
2018-12-12T06:55:47.007Z,16.50
2018-12-12T06:56:47.014Z,19.10
2018-12-12T06:57:47.001Z,21.10
2018-12-12T06:58:46.984Z,16.50
2018-12-12T06:59:46.966Z,20.30
2018-12-12T07:00:46.953Z,18.30
2018-12-12T07:01:46.966Z,17.80
2018-12-12T07:02:46.942Z,20.80
2018-12-12T07:03:46.929Z,19.20
2018-12-12T07:04:46.910Z,18.20
2018-12-12T07:05:46.904Z,21.50
2018-12-12T07:06:53.974Z,22.20
2018-12-12T07:07:46.880Z,17.70
2018-12-12T07:08:46.868Z,19.60
2018-12-12T07:09:46.858Z,20.10
2018-12-12T07:10:46.848Z,21.60
2018-12-12T07:11:46.854Z,19.20
2018-12-12T07:12:46.826Z,19.20
2018-12-12T07:13:46.820Z,20.90
2018-12-12T07:14:46.884Z,19.80
2018-12-12T07:15:46.798Z,21.00
2018-12-12T07:16:46.817Z,19.80
2018-12-12T07:17:46.776Z,22.00
2018-12-12T07:18:46.775Z,24.50
2018-12-12T07:19:46.755Z,19.10
2018-12-12T07:20:46.744Z,17.70
2018-12-12T07:21:46.798Z,24.30
2018-12-12T07:22:46.724Z,24.10
2018-12-12T07:23:46.711Z,24.40
2018-12-12T07:24:46.707Z,19.50
2018-12-12T07:25:46.692Z,21.40
2018-12-12T07:26:46.737Z,18.20
2018-12-12T07:27:46.690Z,17.80
2018-12-12T07:28:46.663Z,18.70
2018-12-12T07:29:46.695Z,17.10
2018-12-12T07:30:46.641Z,19.10
2018-12-12T07:31:46.652Z,18.70
2018-12-12T07:32:46.621Z,23.60
2018-12-12T07:33:46.610Z,17.70
2018-12-12T07:34:46.598Z,19.10
2018-12-12T07:35:46.644Z,16.60
2018-12-12T07:36:46.670Z,18.70
2018-12-12T07:37:46.566Z,21.50
2018-12-12T07:38:46.558Z,17.60
2018-12-12T07:39:46.545Z,19.50
2018-12-12T07:40:46.535Z,16.80
2018-12-12T07:41:46.550Z,17.00
2018-12-12T07:42:46.517Z,19.00
2018-12-12T07:43:46.517Z,15.50
2018-12-12T07:44:46.530Z,20.20
2018-12-12T07:45:46.488Z,17.00
2018-12-12T07:46:46.492Z,20.10
2018-12-12T07:47:46.499Z,20.40
2018-12-12T07:48:46.454Z,15.90
2018-12-12T07:49:46.448Z,15.20
2018-12-12T07:50:46.442Z,18.50
2018-12-12T07:51:46.471Z,19.00
2018-12-12T07:52:46.440Z,18.60
2018-12-12T07:53:46.400Z,18.50
2018-12-12T07:54:46.454Z,18.70
2018-12-12T07:55:47.174Z,19.50
2018-12-12T07:56:46.397Z,20.40
2018-12-12T07:57:46.359Z,20.00
2018-12-12T07:58:46.385Z,18.10
2018-12-12T07:59:46.355Z,17.70
2018-12-12T08:00:46.326Z,16.50
2018-12-12T08:01:46.341Z,24.30
2018-12-12T08:02:46.324Z,19.00
2018-12-12T08:03:46.292Z,16.50
2018-12-12T08:04:46.291Z,17.70
2018-12-12T08:05:46.278Z,19.30
2018-12-12T08:06:46.279Z,17.60
2018-12-12T08:07:46.262Z,19.70
2018-12-12T08:08:46.251Z,20.50
2018-12-12T08:09:46.231Z,15.10
2018-12-12T08:10:46.220Z,21.60
2018-12-12T08:11:46.230Z,19.90
2018-12-12T08:12:46.204Z,20.00
2018-12-12T08:13:46.188Z,15.80
2018-12-12T08:14:46.206Z,15.50
2018-12-12T08:15:46.165Z,21.10
2018-12-12T08:16:46.172Z,20.60
2018-12-12T08:17:46.145Z,20.70
2018-12-12T08:18:46.138Z,14.60
2018-12-12T08:19:46.127Z,15.90
2018-12-12T08:20:46.118Z,20.00
2018-12-12T08:21:46.135Z,18.90
2018-12-12T08:22:46.098Z,16.60
2018-12-12T08:23:46.084Z,19.30
2018-12-12T08:24:46.080Z,17.50
2018-12-12T08:25:46.063Z,15.50
2018-12-12T08:26:46.055Z,17.50
2018-12-12T08:27:46.074Z,18.30
2018-12-12T08:28:46.068Z,20.50
2018-12-12T08:29:46.023Z,17.20
2018-12-12T08:30:46.011Z,19.40
2018-12-12T08:31:46.007Z,18.60
2018-12-12T08:32:46.012Z,18.70
2018-12-12T08:33:45.998Z,18.10
2018-12-12T08:34:45.967Z,19.30
2018-12-12T08:35:45.954Z,16.40
2018-12-12T08:36:45.956Z,15.00
2018-12-12T08:37:45.955Z,20.40
2018-12-12T08:38:45.925Z,17.90
2018-12-12T08:39:45.913Z,19.50
2018-12-12T08:40:45.943Z,22.20
2018-12-12T08:41:45.895Z,17.50
2018-12-12T08:42:45.922Z,19.60
2018-12-12T08:43:45.896Z,18.50
2018-12-12T08:44:45.872Z,19.90
2018-12-12T08:45:45.851Z,20.50
2018-12-12T08:46:45.840Z,20.70
2018-12-12T08:47:45.848Z,16.10
2018-12-12T08:48:45.828Z,20.50
2018-12-12T08:49:45.809Z,17.60
2018-12-12T08:50:45.799Z,18.70
2018-12-12T08:51:45.789Z,18.80
2018-12-12T08:52:45.804Z,19.30
2018-12-12T08:53:45.766Z,17.90
2018-12-12T08:54:45.788Z,15.70
2018-12-12T08:55:45.778Z,19.70
2018-12-12T08:56:45.746Z,17.10
2018-12-12T08:57:45.750Z,17.60
2018-12-12T08:58:45.808Z,16.70
2018-12-12T08:59:45.701Z,22.30
2018-12-12T09:00:45.694Z,19.50
2018-12-12T09:01:45.682Z,19.40
2018-12-12T09:02:45.690Z,19.80
2018-12-12T09:03:45.661Z,22.50
2018-12-12T09:04:45.660Z,19.40
2018-12-12T09:05:45.641Z,21.40
2018-12-12T09:06:45.633Z,20.10
2018-12-12T09:07:45.646Z,23.00
2018-12-12T09:08:45.612Z,22.30
2018-12-12T09:09:45.661Z,19.90
2018-12-12T09:10:45.591Z,21.00
2018-12-12T09:11:45.577Z,23.40
2018-12-12T09:12:45.591Z,19.60
2018-12-12T09:13:45.557Z,29.90
2018-12-12T09:14:45.550Z,22.50
2018-12-12T09:15:45.542Z,21.00
2018-12-12T09:16:45.529Z,18.30
2018-12-12T09:17:45.535Z,22.70
2018-12-12T09:18:45.519Z,19.80
2018-12-12T09:19:45.497Z,21.30
2018-12-12T09:20:45.484Z,21.00
2018-12-12T09:21:45.483Z,19.60
2018-12-12T09:22:45.486Z,23.20
2018-12-12T09:23:45.454Z,21.50
2018-12-12T09:24:45.444Z,21.40
2018-12-12T09:25:45.432Z,19.30
2018-12-12T09:26:45.425Z,19.70
2018-12-12T09:27:46.373Z,18.40
2018-12-12T09:28:45.402Z,21.10
2018-12-12T09:29:45.390Z,19.10
2018-12-12T09:30:45.394Z,21.00
2018-12-12T09:31:45.372Z,21.00
2018-12-12T09:32:45.407Z,22.60
2018-12-12T09:33:45.363Z,20.70
2018-12-12T09:34:45.340Z,25.30
2018-12-12T09:35:45.332Z,24.60
2018-12-12T09:36:45.320Z,19.80
2018-12-12T09:37:45.343Z,18.80
2018-12-12T09:38:45.299Z,21.80
2018-12-12T09:39:45.288Z,18.90
2018-12-12T09:40:45.290Z,18.30
2018-12-12T09:41:45.267Z,19.20
2018-12-12T09:42:45.276Z,20.60
2018-12-12T09:43:45.259Z,20.60
2018-12-12T09:44:45.237Z,21.30
2018-12-12T09:45:45.229Z,17.80
2018-12-12T09:46:45.216Z,18.80
2018-12-12T09:47:45.244Z,21.00
2018-12-12T09:48:45.210Z,18.10
2018-12-12T09:49:45.185Z,18.40
2018-12-12T09:50:45.183Z,21.90
2018-12-12T09:51:45.167Z,18.10
2018-12-12T09:52:45.178Z,18.30
2018-12-12T09:53:45.149Z,19.30
2018-12-12T09:54:45.139Z,17.50
2018-12-12T09:55:45.121Z,17.60
2018-12-12T09:56:45.113Z,15.80
2018-12-12T09:57:45.121Z,18.90
2018-12-12T09:58:45.103Z,18.70
2018-12-12T09:59:45.084Z,19.40
2018-12-12T10:00:45.078Z,18.70
2018-12-12T10:01:45.065Z,17.70
2018-12-12T10:02:45.082Z,20.60
2018-12-12T10:03:45.041Z,19.00
2018-12-12T10:04:45.040Z,18.40
2018-12-12T10:05:45.019Z,17.00
2018-12-12T10:06:45.009Z,16.80
2018-12-12T10:07:45.142Z,16.00
2018-12-12T10:08:44.989Z,15.90
2018-12-12T10:09:44.982Z,17.40
2018-12-12T10:10:44.968Z,21.80
2018-12-12T10:11:44.973Z,16.40
2018-12-12T10:12:45.039Z,15.50
2018-12-12T10:13:44.939Z,15.40
2018-12-12T10:14:44.927Z,19.00
2018-12-12T10:15:44.918Z,15.50
2018-12-12T10:16:44.906Z,14.50
2018-12-12T10:17:44.898Z,16.60
2018-12-12T10:18:44.919Z,14.10
2018-12-12T10:19:44.877Z,15.50
2018-12-12T10:20:44.866Z,14.60
2018-12-12T10:21:44.860Z,17.10
2018-12-12T10:22:44.879Z,17.30
2018-12-12T10:23:44.855Z,15.10
2018-12-12T10:24:44.830Z,13.80
2018-12-12T10:25:44.816Z,14.80
2018-12-12T10:26:44.814Z,15.50
2018-12-12T10:27:44.826Z,15.00
2018-12-12T10:28:44.803Z,15.40
2018-12-12T10:29:44.794Z,15.90
2018-12-12T10:30:44.781Z,12.90
2018-12-12T10:31:44.755Z,12.50
2018-12-12T10:32:44.750Z,14.10
2018-12-12T10:33:44.756Z,15.00
2018-12-12T10:34:44.724Z,15.00
2018-12-12T10:35:44.725Z,11.80
2018-12-12T10:36:44.722Z,12.40
2018-12-12T10:37:44.693Z,15.10
2018-12-12T10:38:44.704Z,14.50
2018-12-12T10:39:44.684Z,14.20
2018-12-12T10:40:44.676Z,13.00
2018-12-12T10:41:44.652Z,14.50
2018-12-12T10:42:44.643Z,11.10
2018-12-12T10:43:44.654Z,14.30
2018-12-12T10:44:44.633Z,14.90
2018-12-12T10:45:44.615Z,14.70
2018-12-12T10:46:44.610Z,12.50
2018-12-12T10:47:44.593Z,13.40
2018-12-12T10:48:44.608Z,15.00
2018-12-12T10:49:44.572Z,12.60
2018-12-12T10:50:44.562Z,15.60
2018-12-12T10:51:44.561Z,13.50
2018-12-12T10:52:44.543Z,14.10
2018-12-12T10:53:44.554Z,12.60
2018-12-12T10:54:44.526Z,12.80
2018-12-12T10:55:44.523Z,12.60
2018-12-12T10:56:44.500Z,15.10
2018-12-12T10:57:44.490Z,12.50
2018-12-12T10:58:44.505Z,14.40
2018-12-12T10:59:44.473Z,12.60
2018-12-12T11:00:44.464Z,12.90
2018-12-12T11:01:44.450Z,14.40
2018-12-12T11:02:44.445Z,14.10
2018-12-12T11:03:44.607Z,13.60
2018-12-12T11:04:44.420Z,12.20
2018-12-12T11:05:44.408Z,12.20
2018-12-12T11:06:44.404Z,12.20
2018-12-12T11:07:44.386Z,12.60
2018-12-12T11:08:44.393Z,12.00
2018-12-12T11:09:44.366Z,10.70
2018-12-12T11:10:44.356Z,12.70
2018-12-12T11:11:44.356Z,13.20
2018-12-12T11:12:44.337Z,14.50
2018-12-12T11:13:44.346Z,13.60
2018-12-12T11:14:44.314Z,11.90
2018-12-12T11:15:44.303Z,12.20
2018-12-12T11:16:44.293Z,12.60
2018-12-12T11:17:44.286Z,16.00
2018-12-12T11:18:44.301Z,12.10
2018-12-12T11:19:44.265Z,15.00
2018-12-12T11:20:44.251Z,13.70
2018-12-12T11:21:44.242Z,13.80
2018-12-12T11:22:44.233Z,10.80
2018-12-12T11:23:44.239Z,11.00
2018-12-12T11:24:45.141Z,9.90
2018-12-12T11:25:44.197Z,10.10
2018-12-12T11:26:44.203Z,11.10
2018-12-12T11:27:44.178Z,9.20
2018-12-12T11:28:44.185Z,8.60
2018-12-12T11:29:44.160Z,8.40
2018-12-12T11:30:44.151Z,9.60
2018-12-12T11:31:44.136Z,6.50
2018-12-12T11:32:44.129Z,5.90
2018-12-12T11:33:50.311Z,5.90
2018-12-12T11:34:45.104Z,7.10
2018-12-12T11:35:44.093Z,6.70
2018-12-12T11:36:44.106Z,7.20
2018-12-12T11:37:44.084Z,4.40
2018-12-12T11:38:44.091Z,4.70
2018-12-12T11:39:44.051Z,4.90
2018-12-12T11:40:44.044Z,5.60
2018-12-12T11:41:44.052Z,5.70
2018-12-12T11:42:44.023Z,5.30
2018-12-12T11:43:44.030Z,5.60
2018-12-12T11:44:43.998Z,5.40
2018-12-12T11:45:43.989Z,7.70
2018-12-12T11:46:43.977Z,4.40
2018-12-12T11:47:43.977Z,5.60
2018-12-12T11:48:43.977Z,5.30
2018-12-12T11:49:43.951Z,5.40
2018-12-12T11:50:43.936Z,4.80
2018-12-12T11:51:43.928Z,5.10
2018-12-12T11:52:43.916Z,24.20
2018-12-12T11:53:43.904Z,11.20
2018-12-12T11:54:43.911Z,6.20
2018-12-12T11:55:43.912Z,14.80
2018-12-12T11:56:43.871Z,7.40
2018-12-12T11:57:43.874Z,5.60
2018-12-12T11:58:43.848Z,6.60
2018-12-12T11:59:43.860Z,5.50
2018-12-12T12:00:43.837Z,6.00
2018-12-12T12:01:43.824Z,6.30
2018-12-12T12:02:43.806Z,5.20
2018-12-12T12:03:43.797Z,10.40
2018-12-12T12:04:43.813Z,7.60
2018-12-12T12:05:43.778Z,7.20
2018-12-12T12:06:43.765Z,4.90
2018-12-12T12:07:43.757Z,5.10
2018-12-12T12:08:43.743Z,5.20
2018-12-12T12:09:43.749Z,5.20
2018-12-12T12:10:43.722Z,4.30
2018-12-12T12:11:43.709Z,4.90
2018-12-12T12:12:43.713Z,7.80
2018-12-12T12:13:43.697Z,5.00
2018-12-12T12:14:43.705Z,5.60
2018-12-12T12:15:43.669Z,5.70
2018-12-12T12:16:43.661Z,5.10
2018-12-12T12:17:43.645Z,3.90
2018-12-12T12:18:43.640Z,3.60
2018-12-12T12:19:43.649Z,4.60
2018-12-12T12:20:43.611Z,4.80
2018-12-12T12:21:43.610Z,5.10
2018-12-12T12:22:43.599Z,6.80
2018-12-12T12:23:43.584Z,16.50
2018-12-12T12:24:43.593Z,6.20
2018-12-12T12:25:43.571Z,5.00
2018-12-12T12:26:43.574Z,3.80
2018-12-12T12:27:43.542Z,2.70
2018-12-12T12:28:43.529Z,3.60
2018-12-12T12:29:43.553Z,2.70
2018-12-12T12:30:43.511Z,2.50
2018-12-12T12:31:43.518Z,3.10
2018-12-12T12:32:43.488Z,2.60
2018-12-12T12:33:43.481Z,2.60
2018-12-12T12:34:43.486Z,10.40
2018-12-12T12:35:43.474Z,31.90
2018-12-12T12:36:43.448Z,17.90
2018-12-12T12:37:43.440Z,7.70
2018-12-12T12:38:43.425Z,4.30
2018-12-12T12:39:43.433Z,4.20
2018-12-12T12:40:43.407Z,3.40
2018-12-12T12:41:43.393Z,4.90
2018-12-12T12:42:43.390Z,3.40
2018-12-12T12:43:43.391Z,4.20
2018-12-12T12:44:43.380Z,3.90
2018-12-12T12:45:43.352Z,3.30
2018-12-12T12:46:43.345Z,3.80
2018-12-12T12:47:43.331Z,5.20
2018-12-12T12:48:43.355Z,3.70
2018-12-12T12:49:43.326Z,4.20
2018-12-12T12:50:44.174Z,3.30
2018-12-12T12:51:43.286Z,3.90
2018-12-12T12:52:43.329Z,4.10
2018-12-12T12:53:43.266Z,6.00
2018-12-12T12:54:43.284Z,5.20
2018-12-12T12:55:43.257Z,5.00
2018-12-12T12:56:43.257Z,6.30
2018-12-12T12:57:43.230Z,3.80
2018-12-12T12:58:43.218Z,3.60
2018-12-12T12:59:43.219Z,3.30
2018-12-12T13:00:43.195Z,4.20
2018-12-12T13:01:43.181Z,3.20
2018-12-12T13:02:43.172Z,3.90
2018-12-12T13:03:43.159Z,4.20
2018-12-12T13:04:43.165Z,3.60
2018-12-12T13:05:43.145Z,3.60
2018-12-12T13:06:43.146Z,3.90
2018-12-12T13:07:43.122Z,4.40
2018-12-12T13:08:43.107Z,3.50
2018-12-12T13:09:43.136Z,3.40
2018-12-12T13:10:43.093Z,5.90
2018-12-12T13:11:43.076Z,3.50
2018-12-12T13:12:43.082Z,4.10
2018-12-12T13:13:43.182Z,3.10
2018-12-12T13:14:43.061Z,3.40
2018-12-12T13:15:43.035Z,3.70
2018-12-12T13:16:43.025Z,3.50
2018-12-12T13:17:43.022Z,3.60
2018-12-12T13:18:43.004Z,3.20
2018-12-12T13:19:43.017Z,4.50
2018-12-12T13:20:42.995Z,4.00
2018-12-12T13:21:42.973Z,4.30
2018-12-12T13:22:43.125Z,3.90
2018-12-12T13:23:42.951Z,5.50
2018-12-12T13:24:42.958Z,3.10
2018-12-12T13:25:42.936Z,2.80
2018-12-12T13:26:42.923Z,4.90
2018-12-12T13:27:43.117Z,3.90
2018-12-12T13:28:42.907Z,3.40
2018-12-12T13:29:42.915Z,2.70
2018-12-12T13:30:42.880Z,5.30
2018-12-12T13:31:42.901Z,2.90
2018-12-12T13:32:42.874Z,2.60
2018-12-12T13:33:42.852Z,3.60
2018-12-12T13:34:42.855Z,2.70
2018-12-12T13:35:42.826Z,3.00
2018-12-12T13:36:42.828Z,4.40
2018-12-12T13:37:42.808Z,4.20
2018-12-12T13:38:42.801Z,5.60
2018-12-12T13:39:42.791Z,4.70
2018-12-12T13:40:42.797Z,3.90
2018-12-12T13:41:42.773Z,3.70
2018-12-12T13:42:42.755Z,5.00
2018-12-12T13:43:42.743Z,5.00
2018-12-12T13:44:42.805Z,4.90
2018-12-12T13:45:42.741Z,2.50
2018-12-12T13:46:42.873Z,3.00
2018-12-12T13:47:42.722Z,4.10
2018-12-12T13:48:42.692Z,2.80
2018-12-12T13:49:42.683Z,2.10
2018-12-12T13:50:42.705Z,2.30
2018-12-12T13:51:42.670Z,3.10
2018-12-12T13:52:42.655Z,1.90
2018-12-12T13:53:42.649Z,2.70
2018-12-12T13:54:42.728Z,1.80
2018-12-12T13:55:42.640Z,3.10
2018-12-12T13:56:42.748Z,2.30
2018-12-12T13:57:42.629Z,2.00
2018-12-12T13:58:42.631Z,2.40
2018-12-12T13:59:42.633Z,1.50
2018-12-12T14:00:42.588Z,1.60
2018-12-12T14:01:42.569Z,2.00
2018-12-12T14:02:42.562Z,2.00
2018-12-12T14:03:42.555Z,2.20
2018-12-12T14:04:42.532Z,2.70
2018-12-12T14:05:42.540Z,3.10
2018-12-12T14:06:42.511Z,2.90
2018-12-12T14:07:42.499Z,3.40
2018-12-12T14:08:42.499Z,2.70
2018-12-12T14:09:42.489Z,1.80
2018-12-12T14:10:42.495Z,2.80
2018-12-12T14:11:42.457Z,1.90
2018-12-12T14:12:42.448Z,2.60
2018-12-12T14:13:42.441Z,3.50
2018-12-12T14:14:42.431Z,2.40
2018-12-12T14:15:42.434Z,2.00
2018-12-12T14:16:42.409Z,2.10
2018-12-12T14:17:42.407Z,4.90
2018-12-12T14:18:42.386Z,2.20
2018-12-12T14:19:42.373Z,2.50
2018-12-12T14:20:42.381Z,2.40
2018-12-12T14:21:42.626Z,2.40
2018-12-12T14:22:42.366Z,3.00
2018-12-12T14:23:42.332Z,2.80
2018-12-12T14:24:42.322Z,3.30
2018-12-12T14:25:42.343Z,2.40
2018-12-12T14:26:42.307Z,4.10
2018-12-12T14:27:42.299Z,3.00
2018-12-12T14:28:42.310Z,2.50
2018-12-12T14:29:42.274Z,2.90
2018-12-12T14:30:42.452Z,2.80
2018-12-12T14:31:42.251Z,2.50
2018-12-12T14:32:42.248Z,3.00
2018-12-12T14:33:42.241Z,3.40
2018-12-12T14:34:42.221Z,4.50
2018-12-12T14:35:42.226Z,5.90
2018-12-12T14:36:42.207Z,3.50
2018-12-12T14:37:42.189Z,3.30
2018-12-12T14:38:42.179Z,6.40
2018-12-12T14:39:42.170Z,20.40
2018-12-12T14:40:42.176Z,17.80
2018-12-12T14:41:42.144Z,16.40
2018-12-12T14:42:42.135Z,28.10
2018-12-12T14:43:42.128Z,8.30
2018-12-12T14:44:42.128Z,4.90
2018-12-12T14:45:42.137Z,5.60
2018-12-12T14:46:42.094Z,7.70
2018-12-12T14:47:42.086Z,3.90
2018-12-12T14:48:42.091Z,4.30
2018-12-12T14:49:42.064Z,3.20
2018-12-12T14:50:42.073Z,5.60
2018-12-12T14:51:42.045Z,4.90
2018-12-12T14:52:42.038Z,6.90
2018-12-12T14:53:42.031Z,4.70
2018-12-12T14:54:42.015Z,5.30
2018-12-12T14:55:42.063Z,4.60
2018-12-12T14:56:41.994Z,4.70
2018-12-12T14:57:41.982Z,4.70
2018-12-12T14:58:41.973Z,4.10
2018-12-12T14:59:42.019Z,4.50
2018-12-12T15:00:41.970Z,4.10
2018-12-12T15:01:41.945Z,5.90
2018-12-12T15:02:41.931Z,6.40
2018-12-12T15:03:41.940Z,3.80
2018-12-12T15:04:41.918Z,5.20
2018-12-12T15:05:41.919Z,4.20
2018-12-12T15:06:41.891Z,4.90
2018-12-12T15:07:41.889Z,7.10
2018-12-12T15:08:41.870Z,5.40
2018-12-12T15:09:41.866Z,11.40
2018-12-12T15:10:41.868Z,6.70
2018-12-12T15:11:41.840Z,4.80
2018-12-12T15:12:41.845Z,9.20
2018-12-12T15:13:41.818Z,5.70
2018-12-12T15:14:41.807Z,6.80
2018-12-12T15:15:41.821Z,5.80
2018-12-12T15:16:41.789Z,4.50
2018-12-12T15:17:41.776Z,5.80
2018-12-12T15:18:41.784Z,4.40
2018-12-12T15:19:41.757Z,5.50
2018-12-12T15:20:41.775Z,4.80
2018-12-12T15:21:41.734Z,5.00
2018-12-12T15:22:41.729Z,6.50
2018-12-12T15:23:41.713Z,4.60
2018-12-12T15:24:41.707Z,4.40
2018-12-12T15:25:41.713Z,4.20
2018-12-12T15:26:41.682Z,4.60
2018-12-12T15:27:41.671Z,3.80
2018-12-12T15:28:41.665Z,4.40
2018-12-12T15:29:41.659Z,4.30
2018-12-12T15:30:41.640Z,5.50
2018-12-12T15:31:41.659Z,6.80
2018-12-12T15:32:41.622Z,6.50
2018-12-12T15:33:41.608Z,5.80
2018-12-12T15:34:42.461Z,5.80
2018-12-12T15:35:41.595Z,5.60
2018-12-12T15:36:41.604Z,6.40
2018-12-12T15:37:41.570Z,6.60
2018-12-12T15:38:41.560Z,4.70
2018-12-12T15:39:41.604Z,7.60
2018-12-12T15:40:41.535Z,6.60
2018-12-12T15:41:41.564Z,6.30
2018-12-12T15:42:41.523Z,5.60
2018-12-12T15:43:41.511Z,5.30
2018-12-12T15:44:41.495Z,7.00
2018-12-12T15:45:41.485Z,6.40
2018-12-12T15:46:41.492Z,6.10
2018-12-12T15:47:41.463Z,5.40
2018-12-12T15:48:41.455Z,8.00
2018-12-12T15:49:41.446Z,7.10
2018-12-12T15:50:41.432Z,8.70
2018-12-12T15:51:41.442Z,6.80
2018-12-12T15:52:41.411Z,6.40
2018-12-12T15:53:41.400Z,7.80
2018-12-12T15:54:41.392Z,6.00
2018-12-12T15:55:41.389Z,7.30
2018-12-12T15:56:41.388Z,7.50
2018-12-12T15:57:41.357Z,8.00
2018-12-12T15:58:41.359Z,10.10
2018-12-12T15:59:41.368Z,6.10
2018-12-12T16:00:41.330Z,7.80
2018-12-12T16:01:41.346Z,6.20
2018-12-12T16:02:41.306Z,6.60
2018-12-12T16:03:41.297Z,7.00
2018-12-12T16:04:41.288Z,7.00
2018-12-12T16:05:41.301Z,9.50
2018-12-12T16:06:41.287Z,6.80
2018-12-12T16:07:41.270Z,9.70
2018-12-12T16:08:41.249Z,6.70
2018-12-12T16:09:41.247Z,5.60
2018-12-12T16:10:41.233Z,6.10
2018-12-12T16:11:41.235Z,5.90
2018-12-12T16:12:41.201Z,6.50
2018-12-12T16:13:41.191Z,8.60
2018-12-12T16:14:41.189Z,7.90
2018-12-12T16:15:41.176Z,6.70
2018-12-12T16:16:41.179Z,8.50
2018-12-12T16:17:41.150Z,6.90
2018-12-12T16:18:41.152Z,7.60
2018-12-12T16:19:41.129Z,6.70
2018-12-12T16:20:41.175Z,8.30
2018-12-12T16:21:41.128Z,7.20
2018-12-12T16:22:41.103Z,8.50
2018-12-12T16:23:41.086Z,9.30
2018-12-12T16:24:41.098Z,6.80
2018-12-12T16:25:41.070Z,7.70
2018-12-12T16:26:41.079Z,8.50
2018-12-12T16:27:41.045Z,6.40
2018-12-12T16:28:41.032Z,8.30
2018-12-12T16:29:41.026Z,8.30
2018-12-12T16:30:41.022Z,9.60
2018-12-12T16:31:41.025Z,7.20
2018-12-12T16:32:40.992Z,8.80
2018-12-12T16:33:40.979Z,7.30
2018-12-12T16:34:40.969Z,6.90
2018-12-12T16:35:40.961Z,6.70
2018-12-12T16:36:40.970Z,7.50
2018-12-12T16:37:40.966Z,7.80
2018-12-12T16:38:40.929Z,8.00
2018-12-12T16:39:40.924Z,6.80
2018-12-12T16:40:40.911Z,6.10
2018-12-12T16:41:40.917Z,6.20
2018-12-12T16:42:40.895Z,4.70
2018-12-12T16:43:40.874Z,7.40
2018-12-12T16:44:40.866Z,8.60
2018-12-12T16:45:40.861Z,7.60
2018-12-12T16:46:40.916Z,6.80
2018-12-12T16:47:40.835Z,7.00
2018-12-12T16:48:40.832Z,6.60
2018-12-12T16:49:40.810Z,6.70
2018-12-12T16:50:40.802Z,6.80
2018-12-12T16:51:40.815Z,6.30
2018-12-12T16:52:40.780Z,6.60
2018-12-12T16:53:40.973Z,7.50
2018-12-12T16:54:40.780Z,7.80
2018-12-12T16:55:40.752Z,6.50
2018-12-12T16:56:40.757Z,7.10
2018-12-12T16:57:40.731Z,6.20
2018-12-12T16:58:40.719Z,9.10
2018-12-12T16:59:40.726Z,8.70
2018-12-12T17:00:40.709Z,10.30
2018-12-12T17:01:40.719Z,8.00
2018-12-12T17:02:40.673Z,7.90
2018-12-12T17:03:40.668Z,7.20
2018-12-12T17:04:40.656Z,7.10
2018-12-12T17:05:40.649Z,8.30
2018-12-12T17:06:40.651Z,7.60
2018-12-12T17:07:40.622Z,7.10
2018-12-12T17:08:40.620Z,8.70
2018-12-12T17:09:40.603Z,8.70
2018-12-12T17:10:40.590Z,9.40
2018-12-12T17:11:40.611Z,10.40
2018-12-12T17:12:40.573Z,7.00
2018-12-12T17:13:40.558Z,8.10
2018-12-12T17:14:40.560Z,8.50
2018-12-12T17:15:40.588Z,9.50
2018-12-12T17:16:40.554Z,7.60
2018-12-12T17:17:40.530Z,8.50
2018-12-12T17:18:40.544Z,8.20
2018-12-12T17:19:40.508Z,6.80
2018-12-12T17:20:40.490Z,8.80
2018-12-12T17:21:40.475Z,6.20
2018-12-12T17:22:40.481Z,8.10
2018-12-12T17:23:40.463Z,10.20
2018-12-12T17:24:40.446Z,8.20
2018-12-12T17:25:40.432Z,8.50
2018-12-12T17:26:40.435Z,10.80
2018-12-12T17:27:40.454Z,18.50
2018-12-12T17:28:40.405Z,10.80
2018-12-12T17:29:40.407Z,9.50
2018-12-12T17:30:40.382Z,10.60
2018-12-12T17:31:40.382Z,9.50
2018-12-12T17:32:40.450Z,8.30
2018-12-12T17:33:40.357Z,9.50
2018-12-12T17:34:40.336Z,9.80
2018-12-12T17:35:40.326Z,7.30
2018-12-12T17:36:40.323Z,6.40
2018-12-12T17:37:40.328Z,6.70
2018-12-12T17:38:40.307Z,6.90
2018-12-12T17:39:40.287Z,8.50
2018-12-12T17:40:40.275Z,8.80
2018-12-12T17:41:40.268Z,7.50
2018-12-12T17:42:40.290Z,9.20
2018-12-12T17:43:40.256Z,9.00
2018-12-12T17:44:40.234Z,7.90
2018-12-12T17:45:40.277Z,7.10
2018-12-12T17:46:40.218Z,8.80
2018-12-12T17:47:40.219Z,8.20
2018-12-12T17:48:40.207Z,7.50
2018-12-12T17:49:40.185Z,8.60
2018-12-12T17:50:40.172Z,8.60
2018-12-12T17:51:40.164Z,7.90
2018-12-12T17:52:40.166Z,8.00
2018-12-12T17:53:40.137Z,7.60
2018-12-12T17:54:40.141Z,7.80
2018-12-12T17:55:40.122Z,6.40
2018-12-12T17:56:40.106Z,6.80
2018-12-12T17:57:40.114Z,7.90
2018-12-12T17:58:40.086Z,7.20
2018-12-12T17:59:40.075Z,8.30
2018-12-12T18:00:40.071Z,6.90
2018-12-12T18:01:40.057Z,8.70
2018-12-12T18:02:40.065Z,6.90
2018-12-12T18:03:40.036Z,39.90
2018-12-12T18:04:40.023Z,33.50
2018-12-12T18:05:40.050Z,17.20
2018-12-12T18:06:40.002Z,8.20
2018-12-12T18:07:40.029Z,7.60
2018-12-12T18:08:39.982Z,10.50
2018-12-12T18:09:39.999Z,6.60
2018-12-12T18:10:39.965Z,7.40
2018-12-12T18:11:39.961Z,7.70
2018-12-12T18:12:39.956Z,8.60
2018-12-12T18:13:39.933Z,8.10
2018-12-12T18:14:39.919Z,6.90
2018-12-12T18:15:39.908Z,7.70
2018-12-12T18:16:39.972Z,7.60
2018-12-12T18:17:39.908Z,9.00
2018-12-12T18:18:39.876Z,8.30
2018-12-12T18:19:39.870Z,6.70
2018-12-12T18:20:39.861Z,8.80
2018-12-12T18:21:39.843Z,6.90
2018-12-12T18:22:39.853Z,9.80
2018-12-12T18:23:39.830Z,7.50
2018-12-12T18:24:39.816Z,7.40
2018-12-12T18:25:39.819Z,8.20
2018-12-12T18:26:39.791Z,9.00
2018-12-12T18:27:39.813Z,6.90
2018-12-12T18:28:39.771Z,8.80
2018-12-12T18:29:39.764Z,7.30
2018-12-12T18:30:39.755Z,8.90
2018-12-12T18:31:39.738Z,6.70
2018-12-12T18:32:39.754Z,6.90
2018-12-12T18:33:39.715Z,7.20
2018-12-12T18:34:39.706Z,8.70
2018-12-12T18:35:39.696Z,7.70
2018-12-12T18:36:39.694Z,6.80
2018-12-12T18:37:39.695Z,7.30
2018-12-12T18:38:39.693Z,8.30
2018-12-12T18:39:39.655Z,8.20
2018-12-12T18:40:39.645Z,6.80
2018-12-12T18:41:39.639Z,6.10
2018-12-12T18:42:39.641Z,6.80
2018-12-12T18:43:39.636Z,8.20
2018-12-12T18:44:39.619Z,6.40
2018-12-12T18:45:39.590Z,6.40
2018-12-12T18:46:39.582Z,6.70
2018-12-12T18:47:39.676Z,6.10
2018-12-12T18:48:39.557Z,7.00
2018-12-12T18:49:39.548Z,6.60
2018-12-12T18:50:39.562Z,7.00
2018-12-12T18:51:39.530Z,6.90
2018-12-12T18:52:39.554Z,8.00
2018-12-12T18:53:39.516Z,7.60
2018-12-12T18:54:39.495Z,9.00
2018-12-12T18:55:39.497Z,6.70
2018-12-12T18:56:39.532Z,6.40
2018-12-12T18:57:39.495Z,5.40
2018-12-12T18:58:39.454Z,7.50
2018-12-12T18:59:39.473Z,5.70
2018-12-12T19:00:39.434Z,8.70
2018-12-12T19:01:39.450Z,7.40
2018-12-12T19:02:39.470Z,7.20
2018-12-12T19:03:39.405Z,6.30
2018-12-12T19:04:39.415Z,7.40
2018-12-12T19:05:39.401Z,6.00
2018-12-12T19:06:39.373Z,7.40
2018-12-12T19:07:39.434Z,8.40
2018-12-12T19:08:39.394Z,7.30
2018-12-12T19:09:39.341Z,6.40
2018-12-12T19:10:39.382Z,8.50
2018-12-12T19:11:44.385Z,6.70
2018-12-12T19:12:40.325Z,5.60
2018-12-12T19:13:39.298Z,6.20
2018-12-12T19:14:39.288Z,6.30
2018-12-12T19:15:39.277Z,6.80
2018-12-12T19:16:39.273Z,6.30
2018-12-12T19:17:39.565Z,7.20
2018-12-12T19:18:39.242Z,7.00
2018-12-12T19:19:39.259Z,5.20
2018-12-12T19:20:39.227Z,6.20
2018-12-12T19:21:39.212Z,5.60
2018-12-12T19:22:39.227Z,8.80
2018-12-12T19:23:39.224Z,6.90
2018-12-12T19:24:39.217Z,8.00
2018-12-12T19:25:39.168Z,6.10
2018-12-12T19:26:39.161Z,6.70
2018-12-12T19:27:39.147Z,5.50
2018-12-12T19:28:39.215Z,5.40
2018-12-12T19:29:39.126Z,6.40
2018-12-12T19:30:39.115Z,4.50
2018-12-12T19:31:39.117Z,4.60
2018-12-12T19:32:39.105Z,4.10
2018-12-12T19:33:39.113Z,6.70
2018-12-12T19:34:39.079Z,3.90
2018-12-12T19:35:39.064Z,4.60